Ida Grove, Iowa
Current Conditions -  °F | °C
As of 5:55 AM on Thursday 23 Oct 2014 (Local Time) from KSLB Reporting Station
Haze Haze  
Wind Chill: 57°   Ceiling: 400
Heat Index: 57°   Visibility: 6mi
Dew Point: 57°   Wind: 7mph
Humidity: 100%   Direction: 300°WNW
Pressure: 30.02"   Gusts: NA
Location:  42.34°N, 95.47°W
Report Text: KSLB 231055Z AUTO 30006KT 6SM BR OVC004 14/14 A3002 RMK AO2
Loading
Personal Weather Stations






























Interactive Weather Map
Tropical Storm Tracking
New forecast layout! Learn more

10-Day Weather Forecast

Advertisements
Track Severe Weather on mobile